Gesamt
Forbes Airport (Forbes, New South Wales) FRB Wetter
|
Forbes, New South Wales (FRB / YFBS)
Klarer Himmel
Windstill |
|
13 °C |
There is no TAF data available at FRB. Showing TAF data for YPKS (24 mi NO).
PKE Terminal Area Forecast (keine Daten für FRB)
| Here is the undecoded forecast: 2026/05/04 02:57 YPKS 040257Z 0402/0414 26008KT 9999 -DZ BKN012 BECMG 0405/0407 29014KT 9999 -SHRA SCT045 FM040900 VRB03KT CAVOK TEMPO 0403/0408 2000 DZ BKN002 PROB30 0411/0414 0300 FG BKN001 RMK T 18 17 15 11 Q 1016 1015 1017 1018 |
Kürzlicher METAR-Verlauf für FRB
| Date | Time (AEST) | Flight Rules | Wind Dir. | Speed | Type | Height AGL (ft) | Visibility | Temp (°C) | Temp (°F) | Dew Point (°C) | Dew Point (°F) | Rel. Humid. | Pressure | Density Altitude | Remarks |
|---|---|---|---|---|---|---|---|---|---|---|---|---|---|---|---|
| 04-Mai | 19:00 | n/a | 30° | 3 kt | Missing | 13° | 55° | 13° | 55° | 100% | 1017 mb | 408 ft | |||
| 04-Mai | 18:00 | n/a | 30° | 2 kt | Missing | 14° | 57° | 13° | 55° | 94% | 1016 mb | 558 ft | |||
| 04-Mai | 17:00 | n/a | Calm | Missing | 15° | 59° | 13° | 55° | 88% | 1016 mb | 678 ft | ||||
| 04-Mai | 16:00 | n/a | Calm | Missing | 14° | 57° | 13° | 55° | 94% | 1015 mb | 587 ft | ||||
| 04-Mai | 15:00 | n/a | Calm | Missing | 14° | 57° | 13° | 55° | 94% | 1015 mb | 587 ft | ||||
| 04-Mai | 14:00 | n/a | 260° | 2 kt | Missing | 15° | 59° | 14° | 57° | 94% | 1015 mb | 707 ft | |||
| 04-Mai | 13:00 | n/a | 230° | 4 kt | Missing | 15° | 59° | 13° | 55° | 88% | 1016 mb | 678 ft | |||
| 04-Mai | 12:00 | n/a | 250° | 4 kt | Missing | 15° | 59° | 15° | 59° | 100% | 1016 mb | 678 ft | |||
| 04-Mai | 11:00 | n/a | 230° | 4 kt | Missing | 14° | 57° | 14° | 57° | 100% | 1017 mb | 528 ft | |||
| 04-Mai | 10:00 | n/a | 220° | 3 kt | Missing | 15° | 59° | 15° | 59° | 100% | 1017 mb | 648 ft | |||
| 04-Mai | 09:00 | n/a | 230° | 4 kt | Missing | 15° | 59° | 15° | 59° | 100% | 1017 mb | 648 ft | |||
| 04-Mai | 08:00 | n/a | 10° | 10 kt | Missing | 17° | 62° | 17° | 62° | 100% | 1016 mb | 918 ft | |||
| 04-Mai | 07:00 | n/a | 20° | 9 kt | Missing | 17° | 62° | 17° | 62° | 100% | 1015 mb | 947 ft | |||
| 04-Mai | 06:00 | n/a | 10° | 8 kt | Missing | 17° | 62° | 17° | 62° | 100% | 1015 mb | 947 ft | |||
| 04-Mai | 05:00 | n/a | 10° | 6 kt | Missing | 17° | 62° | 17° | 62° | 100% | 1015 mb | 947 ft | |||
| 04-Mai | 04:00 | n/a | 350° | 5 kt | Missing | 17° | 62° | 17° | 62° | 100% | 1015 mb | 947 ft | |||
| 04-Mai | 03:00 | n/a | 20° | 7 kt | Missing | 17° | 62° | 17° | 62° | 100% | 1015 mb | 947 ft | |||
| 04-Mai | 02:00 | n/a | 30° | 9 kt | Missing | 17° | 62° | 17° | 62° | 100% | 1016 mb | 918 ft | |||
| 04-Mai | 01:00 | n/a | 30° | 6 kt | Missing | 17° | 62° | 17° | 62° | 100% | 1017 mb | 888 ft | |||
| 04-Mai | 00:00 | n/a | 360° | 4 kt | Missing | 17° | 62° | 17° | 62° | 100% | 1017 mb | 888 ft | |||
| 03-Mai | 23:00 | n/a | 320° | 4 kt | Missing | 17° | 62° | 17° | 62° | 100% | 1018 mb | 858 ft | |||
| 03-Mai | 22:00 | n/a | 280° | 3 kt | Missing | 17° | 62° | 17° | 62° | 100% | 1018 mb | 858 ft | |||
| 03-Mai | 21:00 | n/a | 290° | 6 kt | Missing | 17° | 62° | 17° | 62° | 100% | 1018 mb | 858 ft | |||
| 03-Mai | 20:00 | n/a | 260° | 6 kt | Missing | 18° | 64° | 17° | 62° | 94% | 1017 mb | 1.008 ft |
Anmelden
| Ihr Browser wird nicht unterstützt. aktualisieren Sie Ihren Browser |
